sensor_id;sensor_type;location;lat;lon;timestamp;P1;durP1;ratioP1;P2;durP2;ratioP2
80679;SDS011;70043;51.982;-8.514;2023-05-13T00:01:13;1.35;;;0.80;;
80679;SDS011;70043;51.982;-8.514;2023-05-13T00:03:41;1.90;;;1.40;;
80679;SDS011;70043;51.982;-8.514;2023-05-13T00:06:09;2.20;;;1.05;;
80679;SDS011;70043;51.982;-8.514;2023-05-13T00:08:36;1.98;;;1.13;;
80679;SDS011;70043;51.982;-8.514;2023-05-13T00:11:04;1.95;;;1.00;;
80679;SDS011;70043;51.982;-8.514;2023-05-13T00:13:32;1.02;;;0.65;;
80679;SDS011;70043;51.982;-8.514;2023-05-13T00:16:02;6.72;;;1.38;;
80679;SDS011;70043;51.982;-8.514;2023-05-13T00:18:30;3.28;;;1.05;;
80679;SDS011;70043;51.982;-8.514;2023-05-13T00:20:58;2.47;;;0.90;;
80679;SDS011;70043;51.982;-8.514;2023-05-13T00:23:25;1.88;;;0.82;;
80679;SDS011;70043;51.982;-8.514;2023-05-13T00:25:53;1.48;;;1.20;;
80679;SDS011;70043;51.982;-8.514;2023-05-13T00:28:21;1.92;;;0.73;;
80679;SDS011;70043;51.982;-8.514;2023-05-13T00:30:48;1.23;;;0.93;;
80679;SDS011;70043;51.982;-8.514;2023-05-13T00:33:18;5.65;;;1.30;;
80679;SDS011;70043;51.982;-8.514;2023-05-13T00:35:45;0.88;;;0.60;;
80679;SDS011;70043;51.982;-8.514;2023-05-13T00:38:13;1.55;;;0.65;;
80679;SDS011;70043;51.982;-8.514;2023-05-13T00:40:41;0.43;;;0.43;;
80679;SDS011;70043;51.982;-8.514;2023-05-13T00:43:10;3.20;;;0.90;;
80679;SDS011;70043;51.982;-8.514;2023-05-13T00:45:37;0.25;;;0.25;;
80679;SDS011;70043;51.982;-8.514;2023-05-13T00:48:05;1.58;;;0.68;;
80679;SDS011;70043;51.982;-8.514;2023-05-13T00:50:34;3.70;;;0.85;;
80679;SDS011;70043;51.982;-8.514;2023-05-13T00:53:02;2.67;;;0.88;;
80679;SDS011;70043;51.982;-8.514;2023-05-13T00:55:30;1.48;;;1.00;;
80679;SDS011;70043;51.982;-8.514;2023-05-13T00:57:58;0.95;;;0.70;;
80679;SDS011;70043;51.982;-8.514;2023-05-13T01:00:25;1.27;;;0.90;;
80679;SDS011;70043;51.982;-8.514;2023-05-13T01:02:55;1.00;;;0.60;;
80679;SDS011;70043;51.982;-8.514;2023-05-13T01:05:30;0.98;;;0.80;;
80679;SDS011;70043;51.982;-8.514;2023-05-13T01:08:04;0.28;;;0.20;;
80679;SDS011;70043;51.982;-8.514;2023-05-13T01:10:37;0.80;;;0.60;;
80679;SDS011;70043;51.982;-8.514;2023-05-13T01:13:07;0.55;;;0.32;;
80679;SDS011;70043;51.982;-8.514;2023-05-13T01:15:39;1.63;;;0.88;;
80679;SDS011;70043;51.982;-8.514;2023-05-13T01:18:08;1.20;;;0.68;;
80679;SDS011;70043;51.982;-8.514;2023-05-13T01:20:40;2.70;;;1.38;;
80679;SDS011;70043;51.982;-8.514;2023-05-13T01:23:10;0.05;;;0.05;;
80679;SDS011;70043;51.982;-8.514;2023-05-13T01:25:38;0.93;;;0.65;;
80679;SDS011;70043;51.982;-8.514;2023-05-13T01:28:06;1.45;;;0.98;;
80679;SDS011;70043;51.982;-8.514;2023-05-13T01:30:34;0.50;;;0.32;;
80679;SDS011;70043;51.982;-8.514;2023-05-13T01:33:02;3.25;;;1.00;;
80679;SDS011;70043;51.982;-8.514;2023-05-13T01:35:30;1.45;;;0.47;;
80679;SDS011;70043;51.982;-8.514;2023-05-13T01:37:58;1.85;;;1.75;;
80679;SDS011;70043;51.982;-8.514;2023-05-13T01:40:28;1.17;;;0.65;;
80679;SDS011;70043;51.982;-8.514;2023-05-13T01:42:56;0.57;;;0.35;;
80679;SDS011;70043;51.982;-8.514;2023-05-13T01:45:23;1.08;;;0.55;;
80679;SDS011;70043;51.982;-8.514;2023-05-13T01:47:52;0.70;;;0.60;;
80679;SDS011;70043;51.982;-8.514;2023-05-13T01:50:20;0.28;;;0.28;;
80679;SDS011;70043;51.982;-8.514;2023-05-13T01:52:48;1.35;;;0.88;;
80679;SDS011;70043;51.982;-8.514;2023-05-13T01:55:16;0.65;;;0.35;;
80679;SDS011;70043;51.982;-8.514;2023-05-13T01:57:45;1.00;;;0.45;;
80679;SDS011;70043;51.982;-8.514;2023-05-13T02:00:13;0.95;;;0.95;;
80679;SDS011;70043;51.982;-8.514;2023-05-13T02:02:41;0.15;;;0.10;;
80679;SDS011;70043;51.982;-8.514;2023-05-13T02:05:11;3.95;;;0.68;;
80679;SDS011;70043;51.982;-8.514;2023-05-13T02:07:38;0.63;;;0.25;;
80679;SDS011;70043;51.982;-8.514;2023-05-13T02:10:06;0.30;;;0.30;;
80679;SDS011;70043;51.982;-8.514;2023-05-13T02:12:34;8.38;;;0.35;;
80679;SDS011;70043;51.982;-8.514;2023-05-13T02:15:04;1.25;;;0.77;;
80679;SDS011;70043;51.982;-8.514;2023-05-13T02:17:32;0.80;;;0.47;;
80679;SDS011;70043;51.982;-8.514;2023-05-13T02:20:00;1.20;;;0.85;;
80679;SDS011;70043;51.982;-8.514;2023-05-13T02:22:28;0.10;;;0.10;;
80679;SDS011;70043;51.982;-8.514;2023-05-13T02:24:56;0.70;;;0.50;;
80679;SDS011;70043;51.982;-8.514;2023-05-13T02:27:23;0.65;;;0.47;;
80679;SDS011;70043;51.982;-8.514;2023-05-13T02:29:51;0.30;;;0.30;;
80679;SDS011;70043;51.982;-8.514;2023-05-13T02:32:20;0.15;;;0.10;;
80679;SDS011;70043;51.982;-8.514;2023-05-13T02:34:48;0.80;;;0.45;;
80679;SDS011;70043;51.982;-8.514;2023-05-13T02:37:15;0.70;;;0.43;;
80679;SDS011;70043;51.982;-8.514;2023-05-13T02:39:43;0.73;;;0.38;;
80679;SDS011;70043;51.982;-8.514;2023-05-13T02:42:11;1.33;;;0.80;;
80679;SDS011;70043;51.982;-8.514;2023-05-13T02:44:38;0.43;;;0.43;;
80679;SDS011;70043;51.982;-8.514;2023-05-13T02:47:06;1.08;;;0.95;;
80679;SDS011;70043;51.982;-8.514;2023-05-13T02:49:35;0.30;;;0.22;;
80679;SDS011;70043;51.982;-8.514;2023-05-13T02:52:03;0.60;;;0.50;;
80679;SDS011;70043;51.982;-8.514;2023-05-13T02:54:31;1.77;;;0.85;;
80679;SDS011;70043;51.982;-8.514;2023-05-13T02:56:59;6.18;;;1.33;;
80679;SDS011;70043;51.982;-8.514;2023-05-13T02:59:26;1.05;;;0.52;;
80679;SDS011;70043;51.982;-8.514;2023-05-13T03:01:54;1.10;;;0.40;;
80679;SDS011;70043;51.982;-8.514;2023-05-13T03:04:22;0.70;;;0.45;;
80679;SDS011;70043;51.982;-8.514;2023-05-13T03:06:51;0.47;;;0.32;;
80679;SDS011;70043;51.982;-8.514;2023-05-13T03:09:19;1.77;;;0.80;;
80679;SDS011;70043;51.982;-8.514;2023-05-13T03:15:01;1.40;;;1.10;;
80679;SDS011;70043;51.982;-8.514;2023-05-13T03:17:29;1.65;;;0.85;;
80679;SDS011;70043;51.982;-8.514;2023-05-13T03:19:57;1.58;;;0.80;;
80679;SDS011;70043;51.982;-8.514;2023-05-13T03:22:26;0.93;;;0.73;;
80679;SDS011;70043;51.982;-8.514;2023-05-13T03:24:54;2.65;;;0.65;;
80679;SDS011;70043;51.982;-8.514;2023-05-13T03:27:22;3.05;;;1.02;;
80679;SDS011;70043;51.982;-8.514;2023-05-13T03:29:50;1.27;;;0.80;;
80679;SDS011;70043;51.982;-8.514;2023-05-13T03:32:18;0.90;;;0.43;;
80679;SDS011;70043;51.982;-8.514;2023-05-13T03:34:47;2.40;;;0.77;;
80679;SDS011;70043;51.982;-8.514;2023-05-13T03:37:14;0.93;;;0.63;;
80679;SDS011;70043;51.982;-8.514;2023-05-13T03:39:44;1.17;;;0.65;;
80679;SDS011;70043;51.982;-8.514;2023-05-13T03:42:11;1.77;;;1.00;;
80679;SDS011;70043;51.982;-8.514;2023-05-13T03:44:40;1.75;;;0.80;;
80679;SDS011;70043;51.982;-8.514;2023-05-13T03:47:07;1.88;;;0.93;;
80679;SDS011;70043;51.982;-8.514;2023-05-13T03:49:35;3.78;;;0.82;;
80679;SDS011;70043;51.982;-8.514;2023-05-13T03:52:03;1.38;;;0.65;;
80679;SDS011;70043;51.982;-8.514;2023-05-13T03:54:32;1.60;;;1.30;;
80679;SDS011;70043;51.982;-8.514;2023-05-13T03:57:01;1.52;;;0.80;;
80679;SDS011;70043;51.982;-8.514;2023-05-13T03:59:29;3.10;;;0.98;;
80679;SDS011;70043;51.982;-8.514;2023-05-13T04:01:57;7.40;;;1.33;;
80679;SDS011;70043;51.982;-8.514;2023-05-13T04:04:25;1.10;;;0.73;;
80679;SDS011;70043;51.982;-8.514;2023-05-13T04:06:53;1.40;;;0.82;;
80679;SDS011;70043;51.982;-8.514;2023-05-13T04:09:21;1.67;;;1.05;;
80679;SDS011;70043;51.982;-8.514;2023-05-13T04:11:49;8.50;;;1.30;;
80679;SDS011;70043;51.982;-8.514;2023-05-13T04:14:18;1.17;;;0.68;;
80679;SDS011;70043;51.982;-8.514;2023-05-13T04:16:46;2.17;;;1.10;;
80679;SDS011;70043;51.982;-8.514;2023-05-13T04:19:14;3.38;;;1.30;;
80679;SDS011;70043;51.982;-8.514;2023-05-13T04:21:41;1.88;;;1.17;;
80679;SDS011;70043;51.982;-8.514;2023-05-13T04:24:09;2.97;;;0.65;;
80679;SDS011;70043;51.982;-8.514;2023-05-13T04:26:41;0.85;;;0.70;;
80679;SDS011;70043;51.982;-8.514;2023-05-13T04:29:08;1.58;;;0.90;;
80679;SDS011;70043;51.982;-8.514;2023-05-13T04:31:38;2.03;;;1.00;;
80679;SDS011;70043;51.982;-8.514;2023-05-13T04:34:06;3.85;;;1.25;;
80679;SDS011;70043;51.982;-8.514;2023-05-13T04:36:34;1.67;;;0.85;;
80679;SDS011;70043;51.982;-8.514;2023-05-13T04:39:02;2.63;;;1.00;;
80679;SDS011;70043;51.982;-8.514;2023-05-13T04:41:30;2.38;;;0.98;;
80679;SDS011;70043;51.982;-8.514;2023-05-13T04:43:57;1.67;;;0.55;;
80679;SDS011;70043;51.982;-8.514;2023-05-13T04:46:26;2.22;;;0.73;;
80679;SDS011;70043;51.982;-8.514;2023-05-13T04:48:56;1.73;;;1.38;;
80679;SDS011;70043;51.982;-8.514;2023-05-13T04:51:24;1.70;;;0.90;;
80679;SDS011;70043;51.982;-8.514;2023-05-13T04:53:53;2.00;;;0.95;;
80679;SDS011;70043;51.982;-8.514;2023-05-13T04:56:21;1.63;;;0.82;;
80679;SDS011;70043;51.982;-8.514;2023-05-13T04:58:49;4.22;;;1.40;;
80679;SDS011;70043;51.982;-8.514;2023-05-13T05:01:17;5.28;;;1.52;;
80679;SDS011;70043;51.982;-8.514;2023-05-13T05:03:44;1.80;;;1.15;;
80679;SDS011;70043;51.982;-8.514;2023-05-13T05:06:13;2.38;;;0.63;;
80679;SDS011;70043;51.982;-8.514;2023-05-13T05:08:42;1.30;;;0.68;;
80679;SDS011;70043;51.982;-8.514;2023-05-13T05:11:10;1.63;;;1.02;;
80679;SDS011;70043;51.982;-8.514;2023-05-13T05:13:38;6.15;;;1.40;;
80679;SDS011;70043;51.982;-8.514;2023-05-13T05:16:06;3.22;;;1.27;;
80679;SDS011;70043;51.982;-8.514;2023-05-13T05:18:34;2.45;;;1.40;;
80679;SDS011;70043;51.982;-8.514;2023-05-13T05:21:01;2.53;;;1.20;;
80679;SDS011;70043;51.982;-8.514;2023-05-13T05:23:31;1.35;;;0.80;;
80679;SDS011;70043;51.982;-8.514;2023-05-13T05:25:58;6.20;;;1.75;;
80679;SDS011;70043;51.982;-8.514;2023-05-13T05:28:27;1.85;;;0.98;;
80679;SDS011;70043;51.982;-8.514;2023-05-13T05:30:55;2.50;;;0.80;;
80679;SDS011;70043;51.982;-8.514;2023-05-13T05:33:23;2.17;;;0.88;;
80679;SDS011;70043;51.982;-8.514;2023-05-13T05:35:51;1.10;;;0.50;;
80679;SDS011;70043;51.982;-8.514;2023-05-13T05:38:19;1.35;;;1.00;;
80679;SDS011;70043;51.982;-8.514;2023-05-13T05:40:50;1.50;;;0.85;;
80679;SDS011;70043;51.982;-8.514;2023-05-13T05:43:18;1.42;;;0.93;;
80679;SDS011;70043;51.982;-8.514;2023-05-13T05:45:46;3.40;;;1.25;;
80679;SDS011;70043;51.982;-8.514;2023-05-13T05:48:14;3.80;;;1.17;;
80679;SDS011;70043;51.982;-8.514;2023-05-13T05:50:42;2.38;;;1.23;;
80679;SDS011;70043;51.982;-8.514;2023-05-13T05:53:10;1.70;;;0.80;;
80679;SDS011;70043;51.982;-8.514;2023-05-13T05:55:38;3.95;;;1.17;;
80679;SDS011;70043;51.982;-8.514;2023-05-13T05:58:08;3.15;;;0.60;;
80679;SDS011;70043;51.982;-8.514;2023-05-13T06:00:36;2.30;;;1.30;;
80679;SDS011;70043;51.982;-8.514;2023-05-13T06:03:04;1.98;;;1.27;;
80679;SDS011;70043;51.982;-8.514;2023-05-13T06:05:32;2.15;;;1.10;;
80679;SDS011;70043;51.982;-8.514;2023-05-13T06:08:00;3.70;;;1.15;;
80679;SDS011;70043;51.982;-8.514;2023-05-13T06:10:30;2.95;;;0.93;;
80679;SDS011;70043;51.982;-8.514;2023-05-13T06:12:58;1.50;;;1.02;;
80679;SDS011;70043;51.982;-8.514;2023-05-13T06:15:27;4.95;;;1.45;;
80679;SDS011;70043;51.982;-8.514;2023-05-13T06:17:54;2.03;;;1.40;;
80679;SDS011;70043;51.982;-8.514;2023-05-13T06:20:22;3.15;;;1.33;;
80679;SDS011;70043;51.982;-8.514;2023-05-13T06:22:50;1.45;;;0.90;;
80679;SDS011;70043;51.982;-8.514;2023-05-13T06:25:18;1.25;;;0.90;;
80679;SDS011;70043;51.982;-8.514;2023-05-13T06:27:45;1.83;;;1.15;;
80679;SDS011;70043;51.982;-8.514;2023-05-13T06:30:13;2.70;;;1.20;;
80679;SDS011;70043;51.982;-8.514;2023-05-13T06:32:42;1.67;;;1.13;;
80679;SDS011;70043;51.982;-8.514;2023-05-13T06:35:10;2.78;;;1.40;;
80679;SDS011;70043;51.982;-8.514;2023-05-13T06:37:38;3.75;;;1.58;;
80679;SDS011;70043;51.982;-8.514;2023-05-13T06:40:06;2.17;;;1.15;;
80679;SDS011;70043;51.982;-8.514;2023-05-13T06:42:34;1.83;;;1.23;;
80679;SDS011;70043;51.982;-8.514;2023-05-13T06:45:05;3.67;;;1.42;;
80679;SDS011;70043;51.982;-8.514;2023-05-13T06:47:34;1.70;;;1.25;;
80679;SDS011;70043;51.982;-8.514;2023-05-13T06:50:03;1.80;;;1.27;;
80679;SDS011;70043;51.982;-8.514;2023-05-13T06:52:31;3.25;;;1.10;;
80679;SDS011;70043;51.982;-8.514;2023-05-13T06:54:59;3.67;;;1.85;;
80679;SDS011;70043;51.982;-8.514;2023-05-13T06:57:27;2.80;;;1.60;;
80679;SDS011;70043;51.982;-8.514;2023-05-13T06:59:55;5.03;;;1.75;;
80679;SDS011;70043;51.982;-8.514;2023-05-13T07:02:23;4.70;;;1.70;;
80679;SDS011;70043;51.982;-8.514;2023-05-13T07:04:51;3.25;;;1.77;;
80679;SDS011;70043;51.982;-8.514;2023-05-13T07:07:20;1.80;;;1.40;;
80679;SDS011;70043;51.982;-8.514;2023-05-13T07:09:48;1.85;;;1.23;;
80679;SDS011;70043;51.982;-8.514;2023-05-13T07:12:15;1.58;;;1.20;;
80679;SDS011;70043;51.982;-8.514;2023-05-13T07:14:43;2.08;;;1.23;;
80679;SDS011;70043;51.982;-8.514;2023-05-13T07:17:11;1.85;;;1.10;;
80679;SDS011;70043;51.982;-8.514;2023-05-13T07:19:39;1.70;;;1.00;;
80679;SDS011;70043;51.982;-8.514;2023-05-13T07:22:06;3.25;;;0.88;;
80679;SDS011;70043;51.982;-8.514;2023-05-13T07:24:36;2.33;;;0.90;;
80679;SDS011;70043;51.982;-8.514;2023-05-13T07:27:04;1.52;;;0.60;;
80679;SDS011;70043;51.982;-8.514;2023-05-13T07:29:32;1.10;;;0.80;;
80679;SDS011;70043;51.982;-8.514;2023-05-13T07:32:02;1.70;;;1.27;;
80679;SDS011;70043;51.982;-8.514;2023-05-13T07:34:30;1.30;;;0.80;;
80679;SDS011;70043;51.982;-8.514;2023-05-13T07:36:58;1.33;;;0.90;;
80679;SDS011;70043;51.982;-8.514;2023-05-13T07:39:25;0.70;;;0.43;;
80679;SDS011;70043;51.982;-8.514;2023-05-13T07:41:57;1.70;;;0.95;;
80679;SDS011;70043;51.982;-8.514;2023-05-13T07:44:25;1.10;;;0.77;;
80679;SDS011;70043;51.982;-8.514;2023-05-13T07:46:52;1.63;;;0.80;;
80679;SDS011;70043;51.982;-8.514;2023-05-13T07:49:21;3.42;;;1.45;;
80679;SDS011;70043;51.982;-8.514;2023-05-13T07:51:49;2.92;;;1.58;;
80679;SDS011;70043;51.982;-8.514;2023-05-13T07:54:17;2.10;;;1.48;;
80679;SDS011;70043;51.982;-8.514;2023-05-13T07:56:45;2.13;;;1.23;;
80679;SDS011;70043;51.982;-8.514;2023-05-13T07:59:14;2.15;;;1.38;;
80679;SDS011;70043;51.982;-8.514;2023-05-13T08:01:42;1.48;;;1.02;;
80679;SDS011;70043;51.982;-8.514;2023-05-13T08:04:09;2.03;;;0.82;;
80679;SDS011;70043;51.982;-8.514;2023-05-13T08:06:37;2.78;;;0.60;;
80679;SDS011;70043;51.982;-8.514;2023-05-13T08:09:05;1.10;;;0.80;;
80679;SDS011;70043;51.982;-8.514;2023-05-13T08:11:36;0.60;;;0.40;;
80679;SDS011;70043;51.982;-8.514;2023-05-13T08:14:04;0.77;;;0.40;;
80679;SDS011;70043;51.982;-8.514;2023-05-13T08:16:34;0.82;;;0.50;;
80679;SDS011;70043;51.982;-8.514;2023-05-13T08:19:02;1.30;;;0.60;;
80679;SDS011;70043;51.982;-8.514;2023-05-13T08:21:30;1.70;;;0.73;;
80679;SDS011;70043;51.982;-8.514;2023-05-13T08:23:57;0.90;;;0.65;;
80679;SDS011;70043;51.982;-8.514;2023-05-13T08:26:25;1.17;;;0.60;;
80679;SDS011;70043;51.982;-8.514;2023-05-13T08:28:53;1.50;;;0.90;;
80679;SDS011;70043;51.982;-8.514;2023-05-13T08:31:22;1.67;;;1.30;;
80679;SDS011;70043;51.982;-8.514;2023-05-13T08:33:51;1.48;;;0.90;;
80679;SDS011;70043;51.982;-8.514;2023-05-13T08:36:19;1.60;;;1.10;;
80679;SDS011;70043;51.982;-8.514;2023-05-13T08:38:50;1.55;;;0.90;;
80679;SDS011;70043;51.982;-8.514;2023-05-13T08:41:18;2.22;;;1.33;;
80679;SDS011;70043;51.982;-8.514;2023-05-13T08:43:46;2.65;;;1.40;;
80679;SDS011;70043;51.982;-8.514;2023-05-13T08:46:15;1.98;;;1.27;;
80679;SDS011;70043;51.982;-8.514;2023-05-13T08:48:43;1.60;;;1.30;;
80679;SDS011;70043;51.982;-8.514;2023-05-13T08:51:13;2.22;;;1.10;;
80679;SDS011;70043;51.982;-8.514;2023-05-13T08:53:41;1.23;;;0.80;;
80679;SDS011;70043;51.982;-8.514;2023-05-13T08:56:09;1.40;;;0.82;;
80679;SDS011;70043;51.982;-8.514;2023-05-13T08:58:37;1.30;;;0.85;;
80679;SDS011;70043;51.982;-8.514;2023-05-13T09:01:05;2.15;;;1.02;;
80679;SDS011;70043;51.982;-8.514;2023-05-13T09:03:33;1.77;;;1.10;;
80679;SDS011;70043;51.982;-8.514;2023-05-13T09:06:03;1.80;;;1.17;;
80679;SDS011;70043;51.982;-8.514;2023-05-13T09:08:33;1.67;;;1.15;;
80679;SDS011;70043;51.982;-8.514;2023-05-13T09:11:01;1.80;;;1.30;;
80679;SDS011;70043;51.982;-8.514;2023-05-13T09:13:29;1.60;;;1.17;;
80679;SDS011;70043;51.982;-8.514;2023-05-13T09:15:57;2.58;;;1.50;;
80679;SDS011;70043;51.982;-8.514;2023-05-13T09:18:28;4.43;;;1.73;;
80679;SDS011;70043;51.982;-8.514;2023-05-13T09:20:57;3.50;;;1.67;;
80679;SDS011;70043;51.982;-8.514;2023-05-13T09:23:28;1.30;;;1.08;;
80679;SDS011;70043;51.982;-8.514;2023-05-13T09:25:58;3.17;;;1.45;;
80679;SDS011;70043;51.982;-8.514;2023-05-13T09:28:26;3.38;;;1.10;;
80679;SDS011;70043;51.982;-8.514;2023-05-13T09:30:53;1.98;;;1.00;;
80679;SDS011;70043;51.982;-8.514;2023-05-13T09:33:22;1.40;;;0.80;;
80679;SDS011;70043;51.982;-8.514;2023-05-13T09:35:56;1.40;;;0.68;;
80679;SDS011;70043;51.982;-8.514;2023-05-13T09:38:25;1.17;;;0.40;;
80679;SDS011;70043;51.982;-8.514;2023-05-13T09:40:58;1.95;;;1.08;;
80679;SDS011;70043;51.982;-8.514;2023-05-13T10:26:21;3.58;;;1.02;;
80679;SDS011;70043;51.982;-8.514;2023-05-13T10:28:49;1.73;;;0.70;;
80679;SDS011;70043;51.982;-8.514;2023-05-13T10:31:22;0.90;;;0.50;;
80679;SDS011;70043;51.982;-8.514;2023-05-13T10:33:50;1.38;;;0.85;;
80679;SDS011;70043;51.982;-8.514;2023-05-13T10:36:23;1.00;;;0.50;;
80679;SDS011;70043;51.982;-8.514;2023-05-13T10:39:07;1.33;;;0.38;;
80679;SDS011;70043;51.982;-8.514;2023-05-13T10:41:58;1.05;;;0.45;;
80679;SDS011;70043;51.982;-8.514;2023-05-13T10:44:53;0.55;;;0.40;;
80679;SDS011;70043;51.982;-8.514;2023-05-13T10:47:22;1.05;;;0.50;;
80679;SDS011;70043;51.982;-8.514;2023-05-13T10:49:55;0.63;;;0.40;;
80679;SDS011;70043;51.982;-8.514;2023-05-13T10:52:39;0.85;;;0.40;;
80679;SDS011;70043;51.982;-8.514;2023-05-13T10:55:13;0.60;;;0.50;;
80679;SDS011;70043;51.982;-8.514;2023-05-13T10:57:44;1.95;;;0.47;;
80679;SDS011;70043;51.982;-8.514;2023-05-13T11:00:34;0.80;;;0.43;;
80679;SDS011;70043;51.982;-8.514;2023-05-13T11:03:25;0.70;;;0.40;;
80679;SDS011;70043;51.982;-8.514;2023-05-13T11:05:58;1.00;;;0.60;;
80679;SDS011;70043;51.982;-8.514;2023-05-13T11:08:35;1.20;;;0.52;;
80679;SDS011;70043;51.982;-8.514;2023-05-13T11:11:15;0.93;;;0.57;;
80679;SDS011;70043;51.982;-8.514;2023-05-13T11:13:49;7.03;;;0.98;;
80679;SDS011;70043;51.982;-8.514;2023-05-13T11:16:18;0.75;;;0.60;;
80679;SDS011;70043;51.982;-8.514;2023-05-13T11:18:45;1.27;;;0.63;;
80679;SDS011;70043;51.982;-8.514;2023-05-13T11:21:16;1.67;;;0.85;;
80679;SDS011;70043;51.982;-8.514;2023-05-13T11:23:55;1.88;;;1.25;;
80679;SDS011;70043;51.982;-8.514;2023-05-13T11:26:24;1.90;;;1.35;;
80679;SDS011;70043;51.982;-8.514;2023-05-13T11:28:57;2.13;;;1.10;;
80679;SDS011;70043;51.982;-8.514;2023-05-13T11:31:26;1.00;;;0.80;;
80679;SDS011;70043;51.982;-8.514;2023-05-13T11:34:09;1.42;;;1.05;;
80679;SDS011;70043;51.982;-8.514;2023-05-13T11:36:39;1.13;;;1.00;;
80679;SDS011;70043;51.982;-8.514;2023-05-13T11:39:08;1.55;;;0.95;;
80679;SDS011;70043;51.982;-8.514;2023-05-13T11:41:42;1.30;;;0.98;;
80679;SDS011;70043;51.982;-8.514;2023-05-13T11:44:13;1.25;;;0.70;;
80679;SDS011;70043;51.982;-8.514;2023-05-13T11:46:51;1.13;;;0.73;;
80679;SDS011;70043;51.982;-8.514;2023-05-13T11:49:33;1.25;;;0.80;;
80679;SDS011;70043;51.982;-8.514;2023-05-13T11:52:03;0.98;;;0.60;;
80679;SDS011;70043;51.982;-8.514;2023-05-13T11:54:39;0.95;;;0.60;;
80679;SDS011;70043;51.982;-8.514;2023-05-13T11:57:17;1.50;;;1.00;;
80679;SDS011;70043;51.982;-8.514;2023-05-13T11:59:53;2.13;;;1.23;;
80679;SDS011;70043;51.982;-8.514;2023-05-13T12:02:22;1.35;;;1.05;;
80679;SDS011;70043;51.982;-8.514;2023-05-13T12:04:52;2.65;;;1.40;;
80679;SDS011;70043;51.982;-8.514;2023-05-13T12:07:20;1.67;;;1.00;;
80679;SDS011;70043;51.982;-8.514;2023-05-13T12:09:48;1.70;;;1.10;;
80679;SDS011;70043;51.982;-8.514;2023-05-13T12:12:17;1.65;;;1.10;;
80679;SDS011;70043;51.982;-8.514;2023-05-13T12:14:45;2.13;;;1.42;;
80679;SDS011;70043;51.982;-8.514;2023-05-13T12:17:15;2.30;;;1.80;;
80679;SDS011;70043;51.982;-8.514;2023-05-13T12:22:31;2.30;;;1.40;;
80679;SDS011;70043;51.982;-8.514;2023-05-13T12:24:59;3.75;;;1.67;;
80679;SDS011;70043;51.982;-8.514;2023-05-13T12:27:30;2.35;;;1.65;;
80679;SDS011;70043;51.982;-8.514;2023-05-13T12:29:58;2.42;;;1.60;;
80679;SDS011;70043;51.982;-8.514;2023-05-13T12:32:28;2.13;;;1.35;;
80679;SDS011;70043;51.982;-8.514;2023-05-13T12:34:56;1.90;;;1.42;;
80679;SDS011;70043;51.982;-8.514;2023-05-13T12:37:24;1.88;;;1.20;;
80679;SDS011;70043;51.982;-8.514;2023-05-13T12:39:53;2.95;;;1.40;;
80679;SDS011;70043;51.982;-8.514;2023-05-13T12:42:35;3.33;;;1.77;;
80679;SDS011;70043;51.982;-8.514;2023-05-13T12:45:04;2.40;;;1.77;;
80679;SDS011;70043;51.982;-8.514;2023-05-13T12:50:16;1.65;;;1.05;;
80679;SDS011;70043;51.982;-8.514;2023-05-13T12:52:45;2.45;;;1.33;;
80679;SDS011;70043;51.982;-8.514;2023-05-13T12:55:13;2.05;;;1.40;;
80679;SDS011;70043;51.982;-8.514;2023-05-13T12:57:41;1.75;;;1.40;;
80679;SDS011;70043;51.982;-8.514;2023-05-13T13:00:09;2.15;;;1.77;;
80679;SDS011;70043;51.982;-8.514;2023-05-13T13:02:40;4.05;;;1.85;;
80679;SDS011;70043;51.982;-8.514;2023-05-13T13:05:10;2.67;;;1.92;;
80679;SDS011;70043;51.982;-8.514;2023-05-13T13:07:38;3.03;;;1.60;;
80679;SDS011;70043;51.982;-8.514;2023-05-13T13:10:06;2.35;;;1.70;;
80679;SDS011;70043;51.982;-8.514;2023-05-13T13:12:35;2.17;;;1.27;;
80679;SDS011;70043;51.982;-8.514;2023-05-13T13:15:03;1.88;;;1.38;;
80679;SDS011;70043;51.982;-8.514;2023-05-13T13:17:32;2.10;;;1.63;;
80679;SDS011;70043;51.982;-8.514;2023-05-13T13:20:00;2.05;;;1.50;;
80679;SDS011;70043;51.982;-8.514;2023-05-13T13:22:30;3.08;;;2.22;;
80679;SDS011;70043;51.982;-8.514;2023-05-13T13:25:00;3.47;;;1.58;;
80679;SDS011;70043;51.982;-8.514;2023-05-13T13:27:29;1.80;;;1.50;;
80679;SDS011;70043;51.982;-8.514;2023-05-13T13:29:59;2.15;;;1.55;;
80679;SDS011;70043;51.982;-8.514;2023-05-13T13:32:27;2.88;;;1.52;;
80679;SDS011;70043;51.982;-8.514;2023-05-13T13:34:56;6.25;;;1.60;;
80679;SDS011;70043;51.982;-8.514;2023-05-13T13:37:24;1.88;;;1.50;;
80679;SDS011;70043;51.982;-8.514;2023-05-13T13:39:53;4.05;;;1.58;;
80679;SDS011;70043;51.982;-8.514;2023-05-13T13:42:20;2.03;;;1.25;;
80679;SDS011;70043;51.982;-8.514;2023-05-13T13:44:48;2.83;;;1.55;;
80679;SDS011;70043;51.982;-8.514;2023-05-13T13:47:18;1.60;;;1.10;;
80679;SDS011;70043;51.982;-8.514;2023-05-13T13:49:46;2.25;;;1.25;;
80679;SDS011;70043;51.982;-8.514;2023-05-13T13:52:15;2.35;;;1.23;;
80679;SDS011;70043;51.982;-8.514;2023-05-13T13:54:43;2.17;;;1.40;;
80679;SDS011;70043;51.982;-8.514;2023-05-13T13:57:14;2.75;;;1.35;;
80679;SDS011;70043;51.982;-8.514;2023-05-13T13:59:42;3.70;;;1.77;;
80679;SDS011;70043;51.982;-8.514;2023-05-13T14:02:10;3.85;;;1.42;;
80679;SDS011;70043;51.982;-8.514;2023-05-13T14:04:37;3.13;;;1.70;;
80679;SDS011;70043;51.982;-8.514;2023-05-13T14:07:05;1.95;;;1.20;;
80679;SDS011;70043;51.982;-8.514;2023-05-13T14:09:35;1.90;;;1.70;;
80679;SDS011;70043;51.982;-8.514;2023-05-13T14:12:03;2.20;;;1.27;;
80679;SDS011;70043;51.982;-8.514;2023-05-13T14:14:33;2.47;;;1.73;;
80679;SDS011;70043;51.982;-8.514;2023-05-13T14:17:01;1.80;;;1.25;;
80679;SDS011;70043;51.982;-8.514;2023-05-13T14:19:28;2.10;;;1.55;;
80679;SDS011;70043;51.982;-8.514;2023-05-13T14:21:56;2.17;;;1.30;;
80679;SDS011;70043;51.982;-8.514;2023-05-13T14:24:24;2.08;;;1.35;;
80679;SDS011;70043;51.982;-8.514;2023-05-13T14:26:52;2.42;;;1.50;;
80679;SDS011;70043;51.982;-8.514;2023-05-13T14:29:20;2.65;;;1.27;;
80679;SDS011;70043;51.982;-8.514;2023-05-13T14:31:49;1.90;;;1.17;;
80679;SDS011;70043;51.982;-8.514;2023-05-13T14:34:17;1.88;;;0.98;;
80679;SDS011;70043;51.982;-8.514;2023-05-13T14:36:44;2.95;;;1.30;;
80679;SDS011;70043;51.982;-8.514;2023-05-13T14:39:12;1.60;;;0.90;;
80679;SDS011;70043;51.982;-8.514;2023-05-13T14:41:40;5.35;;;1.60;;
80679;SDS011;70043;51.982;-8.514;2023-05-13T14:44:10;1.30;;;1.10;;
80679;SDS011;70043;51.982;-8.514;2023-05-13T14:46:38;3.75;;;2.10;;
80679;SDS011;70043;51.982;-8.514;2023-05-13T14:49:07;3.08;;;1.80;;
80679;SDS011;70043;51.982;-8.514;2023-05-13T14:51:35;2.00;;;1.55;;
80679;SDS011;70043;51.982;-8.514;2023-05-13T14:54:03;3.80;;;2.00;;
80679;SDS011;70043;51.982;-8.514;2023-05-13T14:56:33;3.95;;;1.75;;
80679;SDS011;70043;51.982;-8.514;2023-05-13T14:59:02;3.25;;;1.42;;
80679;SDS011;70043;51.982;-8.514;2023-05-13T15:01:29;3.25;;;2.08;;
80679;SDS011;70043;51.982;-8.514;2023-05-13T15:03:57;2.15;;;1.70;;
80679;SDS011;70043;51.982;-8.514;2023-05-13T15:06:26;3.25;;;2.03;;
80679;SDS011;70043;51.982;-8.514;2023-05-13T15:08:57;8.13;;;2.38;;
80679;SDS011;70043;51.982;-8.514;2023-05-13T15:11:25;4.72;;;1.88;;
80679;SDS011;70043;51.982;-8.514;2023-05-13T15:13:53;2.90;;;1.60;;
80679;SDS011;70043;51.982;-8.514;2023-05-13T15:16:20;2.50;;;1.90;;
80679;SDS011;70043;51.982;-8.514;2023-05-13T15:18:48;3.28;;;1.92;;
80679;SDS011;70043;51.982;-8.514;2023-05-13T15:21:16;2.03;;;1.50;;
80679;SDS011;70043;51.982;-8.514;2023-05-13T15:23:46;4.30;;;1.40;;
80679;SDS011;70043;51.982;-8.514;2023-05-13T15:26:13;4.80;;;2.17;;
80679;SDS011;70043;51.982;-8.514;2023-05-13T15:28:41;1.90;;;1.65;;
80679;SDS011;70043;51.982;-8.514;2023-05-13T15:31:09;2.15;;;1.55;;
80679;SDS011;70043;51.982;-8.514;2023-05-13T15:33:37;2.25;;;1.75;;
80679;SDS011;70043;51.982;-8.514;2023-05-13T15:36:07;2.15;;;1.42;;